Time;durP1;ratioP1;P1;durP2;ratioP2;P2;SDS_P1;SDS_P2;PMS_P1;PMS_P2;Temp;Humidity;BMP_temperature;BMP_pressure;BME280_temperature;BME280_humidity;BME280_pressure;Samples;Min_cycle;Max_cycle;Signal;HPM_P1;HPM_P2
2021/07/02 00:02:07;;;;;;;6.73;4.50;;;20.40;99.90;;;;;;5267413;27;20424;-64
2021/07/02 00:04:34;;;;;;;5.37;4.00;;;20.40;99.90;;;;;;5267475;27;20194;-63
2021/07/02 00:07:01;;;;;;;8.17;4.50;;;20.50;99.90;;;;;;5267279;27;20137;-64
2021/07/02 00:09:28;;;;;;;5.40;4.30;;;20.50;99.90;;;;;;5267222;27;20398;-64
2021/07/02 00:11:55;;;;;;;9.57;4.53;;;20.40;99.90;;;;;;5266566;27;20444;-64
2021/07/02 00:14:22;;;;;;;6.67;4.73;;;20.40;99.90;;;;;;5265041;27;20110;-64
2021/07/02 00:16:50;;;;;;;7.87;4.20;;;20.40;99.90;;;;;;5267242;27;20111;-64
2021/07/02 00:19:17;;;;;;;6.80;4.20;;;20.30;99.90;;;;;;5267238;27;20111;-64
2021/07/02 00:21:43;;;;;;;6.77;4.27;;;20.20;99.90;;;;;;5267229;27;20152;-65
2021/07/02 00:24:11;;;;;;;6.53;3.83;;;20.20;99.90;;;;;;5267126;27;20152;-64
2021/07/02 00:26:39;;;;;;;6.83;3.90;;;20.30;99.90;;;;;;5267143;27;20119;-65
2021/07/02 00:29:06;;;;;;;8.37;4.03;;;20.30;99.90;;;;;;5267681;27;20129;-65
2021/07/02 00:31:33;;;;;;;5.90;4.07;;;20.20;99.90;;;;;;5267153;27;20337;-64
2021/07/02 00:34:00;;;;;;;7.50;4.47;;;20.10;99.90;;;;;;5266053;27;20126;-64
2021/07/02 00:36:27;;;;;;;6.40;4.20;;;20.10;99.90;;;;;;5267626;27;20362;-65
2021/07/02 00:38:54;;;;;;;6.10;4.17;;;20.10;99.90;;;;;;5267112;27;20115;-65
2021/07/02 00:41:21;;;;;;;6.93;4.33;;;20.10;99.90;;;;;;5247454;27;20369;-65
2021/07/02 00:43:53;;;;;;;5.43;3.97;;;20.10;99.90;;;;;;5266860;27;20114;-66
2021/07/02 00:46:22;;;;;;;4.80;3.97;;;20.10;99.90;;;;;;5267628;27;20409;-65
2021/07/02 00:48:50;;;;;;;4.37;3.80;;;20.20;99.90;;;;;;5267332;27;20384;-65
2021/07/02 00:51:17;;;;;;;5.83;3.60;;;20.10;99.90;;;;;;5264952;27;20458;-65
2021/07/02 00:53:45;;;;;;;6.50;3.87;;;20.10;99.90;;;;;;5266901;27;20122;-65
2021/07/02 00:56:15;;;;;;;5.97;3.63;;;20.00;99.90;;;;;;5267121;27;20123;-64
2021/07/02 00:58:42;;;;;;;5.50;3.50;;;19.80;99.90;;;;;;5264730;27;20158;-65
2021/07/02 01:01:18;;;;;;;4.63;3.23;;;19.70;99.90;;;;;;5266838;27;20156;-64
2021/07/02 01:03:48;;;;;;;4.67;3.60;;;19.60;99.90;;;;;;5267016;27;20224;-65
2021/07/02 01:06:16;;;;;;;4.03;3.50;;;19.60;99.90;;;;;;5266861;27;20380;-65
2021/07/02 01:08:44;;;;;;;6.60;3.57;;;19.50;99.90;;;;;;5267069;27;20107;-65
2021/07/02 01:11:12;;;;;;;5.80;3.60;;;19.50;99.90;;;;;;5265199;27;20124;-65
2021/07/02 01:13:39;;;;;;;4.33;3.30;;;19.30;99.90;;;;;;5266971;27;20160;-65
2021/07/02 01:16:06;;;;;;;4.50;3.23;;;19.30;99.90;;;;;;5266785;27;20119;-64
2021/07/02 01:18:33;;;;;;;7.00;3.67;;;19.20;99.90;;;;;;5267252;27;20111;-64
2021/07/02 01:21:00;;;;;;;4.07;3.50;;;19.20;99.90;;;;;;5266484;27;20110;-64
2021/07/02 01:23:27;;;;;;;5.87;4.00;;;19.10;99.90;;;;;;5266640;27;20111;-64
2021/07/02 01:25:56;;;;;;;5.87;3.30;;;19.10;99.90;;;;;;5266608;27;20211;-64
2021/07/02 01:28:23;;;;;;;5.97;3.53;;;19.10;99.90;;;;;;5264552;27;20475;-64
2021/07/02 01:30:50;;;;;;;4.47;3.53;;;19.10;99.90;;;;;;5264633;27;20125;-64
2021/07/02 01:33:17;;;;;;;4.50;3.30;;;18.90;99.90;;;;;;5267144;27;20165;-65
2021/07/02 01:35:44;;;;;;;4.50;3.60;;;18.90;99.90;;;;;;5266544;27;20125;-64
2021/07/02 01:38:11;;;;;;;4.33;3.33;;;18.80;99.90;;;;;;5264561;27;20111;-64
2021/07/02 01:40:38;;;;;;;4.10;3.57;;;18.70;99.90;;;;;;5266924;27;20137;-64
2021/07/02 01:43:05;;;;;;;6.90;4.10;;;18.70;99.90;;;;;;5266565;27;20153;-65
2021/07/02 01:45:32;;;;;;;4.23;3.80;;;18.80;99.90;;;;;;5264627;27;20480;-65
2021/07/02 01:47:59;;;;;;;4.47;3.60;;;18.70;99.90;;;;;;5266760;27;20153;-64
2021/07/02 01:50:26;;;;;;;7.07;3.63;;;18.70;99.90;;;;;;5266806;27;20204;-64
2021/07/02 01:52:53;;;;;;;4.07;3.53;;;18.70;99.90;;;;;;5264365;27;20484;-64
2021/07/02 01:55:21;;;;;;;4.23;3.47;;;18.70;99.90;;;;;;5266815;27;20115;-64
2021/07/02 01:57:48;;;;;;;5.97;3.50;;;18.70;99.90;;;;;;5266497;27;20111;-65
2021/07/02 02:00:16;;;;;;;6.63;3.63;;;18.60;99.90;;;;;;5266499;27;20141;-64
2021/07/02 02:02:43;;;;;;;6.20;3.57;;;18.50;99.90;;;;;;5266473;27;20118;-66
2021/07/02 02:05:10;;;;;;;4.90;3.27;;;18.50;99.90;;;;;;5266340;27;20351;-64
2021/07/02 02:07:37;;;;;;;7.77;3.30;;;18.40;99.90;;;;;;5263631;27;20115;-64
2021/07/02 02:10:05;;;;;;;4.93;3.53;;;18.50;99.90;;;;;;5265827;27;20175;-64
2021/07/02 02:12:32;;;;;;;4.73;3.60;;;18.40;99.90;;;;;;5266392;27;20321;-65
2021/07/02 02:14:59;;;;;;;4.50;3.30;;;18.30;99.90;;;;;;5266451;27;20155;-65
2021/07/02 02:17:26;;;;;;;5.37;3.60;;;18.30;99.90;;;;;;5266940;27;20148;-65
2021/07/02 02:19:53;;;;;;;3.70;3.10;;;18.20;99.90;;;;;;5266432;27;20114;-65
2021/07/02 02:22:20;;;;;;;3.80;3.23;;;18.30;99.90;;;;;;5266376;27;20148;-66
2021/07/02 02:24:47;;;;;;;4.40;3.40;;;18.40;99.90;;;;;;5266450;27;20119;-66
2021/07/02 02:27:14;;;;;;;5.63;3.37;;;18.20;99.90;;;;;;5264386;27;20480;-66
2021/07/02 02:29:41;;;;;;;4.03;3.30;;;18.10;99.90;;;;;;5266961;27;20114;-65
2021/07/02 02:32:08;;;;;;;4.50;2.97;;;18.00;99.90;;;;;;5266412;27;20115;-65
2021/07/02 02:34:35;;;;;;;4.23;3.30;;;17.90;99.90;;;;;;5267701;27;20393;-65
2021/07/02 02:37:03;;;;;;;5.27;3.57;;;18.00;99.90;;;;;;5267908;27;20118;-66
2021/07/02 02:39:30;;;;;;;4.07;3.07;;;17.90;99.90;;;;;;5267464;27;20137;-66
2021/07/02 02:41:57;;;;;;;5.30;3.33;;;18.00;99.90;;;;;;5267801;27;20145;-66
2021/07/02 02:44:24;;;;;;;4.13;3.60;;;17.90;99.90;;;;;;5266677;27;20172;-67
2021/07/02 02:46:50;;;;;;;6.63;4.00;;;17.70;99.90;;;;;;5265662;27;20392;-66
2021/07/02 02:49:17;;;;;;;4.40;3.50;;;17.70;99.90;;;;;;5267767;27;20114;-65
2021/07/02 02:51:44;;;;;;;4.07;3.50;;;17.70;99.90;;;;;;5265449;27;20130;-66
2021/07/02 02:54:11;;;;;;;5.03;3.70;;;17.60;99.90;;;;;;5267607;27;20152;-66
2021/07/02 02:57:03;;;;;;;4.47;3.77;;;17.60;99.90;;;;;;5267641;27;20122;-66
2021/07/02 02:59:25;;;;;;;6.30;3.97;;;17.60;99.90;;;;;;5264917;27;20146;-65
2021/07/02 03:01:52;;;;;;;4.67;3.63;;;17.60;99.90;;;;;;5265374;27;20114;-66
2021/07/02 03:04:19;;;;;;;5.27;4.00;;;17.50;99.90;;;;;;5266862;27;20119;-66
2021/07/02 03:06:46;;;;;;;5.50;3.70;;;17.60;99.90;;;;;;5267498;27;20179;-65
2021/07/02 03:09:13;;;;;;;5.20;3.80;;;17.50;99.90;;;;;;5267499;27;20425;-65
2021/07/02 03:11:39;;;;;;;6.07;4.17;;;17.60;99.90;;;;;;5265490;27;20374;-66
2021/07/02 03:14:06;;;;;;;5.37;4.10;;;17.50;99.90;;;;;;5265624;27;20122;-65
2021/07/02 03:16:33;;;;;;;5.80;4.40;;;17.50;99.90;;;;;;5267396;27;20163;-65
2021/07/02 03:19:00;;;;;;;5.90;4.00;;;17.50;99.90;;;;;;5267389;27;20114;-65
2021/07/02 03:21:27;;;;;;;6.20;4.07;;;17.50;99.90;;;;;;5267896;27;20168;-65
2021/07/02 03:23:54;;;;;;;6.37;4.10;;;17.50;99.90;;;;;;5265216;27;20193;-65
2021/07/02 03:26:21;;;;;;;5.50;4.00;;;17.60;99.90;;;;;;5267271;27;20315;-64
2021/07/02 03:28:48;;;;;;;5.00;4.30;;;17.60;99.90;;;;;;5265766;27;20444;-64
2021/07/02 03:31:14;;;;;;;7.27;4.80;;;17.70;99.90;;;;;;5265774;27;20115;-64
2021/07/02 03:33:41;;;;;;;5.07;4.10;;;17.70;99.90;;;;;;5266878;27;20123;-67
2021/07/02 03:36:08;;;;;;;5.83;4.27;;;17.70;99.90;;;;;;5265248;27;20110;-63
2021/07/02 03:38:35;;;;;;;6.00;4.47;;;17.60;99.90;;;;;;5265089;27;20439;-66
2021/07/02 03:41:02;;;;;;;5.80;4.70;;;17.60;99.90;;;;;;5267436;27;20115;-65
2021/07/02 03:43:29;;;;;;;5.97;4.63;;;17.50;99.90;;;;;;5267194;27;20111;-64
2021/07/02 03:45:56;;;;;;;8.67;4.50;;;17.40;99.90;;;;;;5265152;27;20405;-65
2021/07/02 03:48:23;;;;;;;7.07;4.87;;;17.50;99.90;;;;;;5267278;27;20155;-64
2021/07/02 03:50:51;;;;;;;6.07;4.70;;;17.50;99.90;;;;;;5267698;27;20150;-64
2021/07/02 03:53:17;;;;;;;6.13;4.67;;;17.60;99.90;;;;;;5267009;27;20119;-64
2021/07/02 03:55:44;;;;;;;6.53;4.73;;;17.70;99.90;;;;;;5267259;27;20114;-64
2021/07/02 03:58:11;;;;;;;7.03;4.97;;;17.70;99.90;;;;;;5265106;27;20451;-64
2021/07/02 04:00:38;;;;;;;7.20;5.07;;;17.50;99.90;;;;;;5267212;27;20114;-63
2021/07/02 04:03:05;;;;;;;6.10;4.93;;;17.30;99.90;;;;;;5267141;27;20150;-63
2021/07/02 04:05:32;;;;;;;8.87;5.00;;;17.40;99.90;;;;;;5265102;27;20156;-63
2021/07/02 04:07:59;;;;;;;7.50;5.33;;;17.40;99.90;;;;;;5266752;27;20219;-64
2021/07/02 04:10:25;;;;;;;7.03;5.57;;;17.40;99.90;;;;;;5267218;27;20126;-64
2021/07/02 04:12:52;;;;;;;8.20;5.37;;;17.30;99.90;;;;;;5267135;27;20164;-65
2021/07/02 04:15:19;;;;;;;6.00;5.40;;;17.30;99.90;;;;;;5266787;27;20380;-64
2021/07/02 04:17:46;;;;;;;7.03;5.63;;;17.60;99.90;;;;;;5267039;27;20157;-64
2021/07/02 04:20:13;;;;;;;7.70;5.70;;;17.70;99.90;;;;;;5267188;27;20150;-64
2021/07/02 04:22:40;;;;;;;7.63;5.37;;;17.90;99.90;;;;;;5266997;27;20115;-64
2021/07/02 04:25:09;;;;;;;7.07;5.60;;;17.70;99.90;;;;;;5264306;27;20361;-64
2021/07/02 04:27:37;;;;;;;7.63;5.93;;;17.70;99.90;;;;;;5267077;27;20142;-64
2021/07/02 04:30:06;;;;;;;7.27;5.67;;;17.60;99.90;;;;;;5266773;27;20110;-65
2021/07/02 04:32:35;;;;;;;8.97;5.43;;;17.70;99.90;;;;;;5266843;27;20460;-63
2021/07/02 04:35:04;;;;;;;9.63;5.90;;;17.80;99.90;;;;;;5266602;27;20114;-64
2021/07/02 04:37:30;;;;;;;8.93;5.90;;;17.90;99.90;;;;;;5265824;27;20129;-65
2021/07/02 04:39:57;;;;;;;7.47;6.00;;;18.00;99.90;;;;;;5264995;27;20172;-65
2021/07/02 04:42:24;;;;;;;7.53;5.60;;;17.90;99.90;;;;;;5264645;27;20115;-64
2021/07/02 04:44:51;;;;;;;8.13;6.43;;;17.80;99.90;;;;;;5265725;27;20182;-64
2021/07/02 04:47:18;;;;;;;10.53;6.40;;;17.70;99.90;;;;;;5265142;27;20129;-65
2021/07/02 04:49:45;;;;;;;8.27;6.53;;;17.60;99.90;;;;;;5265936;27;20129;-65
2021/07/02 04:52:12;;;;;;;12.13;6.80;;;17.70;99.90;;;;;;5266094;27;20111;-65
2021/07/02 04:54:39;;;;;;;9.17;7.07;;;17.50;99.90;;;;;;5266716;27;20165;-64
2021/07/02 04:57:05;;;;;;;10.83;6.77;;;17.60;99.90;;;;;;5266255;27;20106;-64
2021/07/02 04:59:36;;;;;;;8.03;6.27;;;17.90;99.90;;;;;;5266819;27;20145;-65
2021/07/02 05:02:03;;;;;;;8.60;6.27;;;17.70;99.90;;;;;;5266586;27;20111;-65
2021/07/02 05:04:30;;;;;;;8.83;6.70;;;17.90;99.90;;;;;;5247450;27;20111;-64
2021/07/02 05:06:57;;;;;;;9.50;6.47;;;17.90;99.90;;;;;;5266537;27;20180;-65
2021/07/02 05:09:24;;;;;;;7.87;6.17;;;17.80;99.90;;;;;;5265868;27;20131;-65
2021/07/02 05:11:51;;;;;;;9.03;6.40;;;17.80;99.90;;;;;;5266660;27;20180;-64
2021/07/02 05:14:18;;;;;;;8.17;5.97;;;17.90;99.90;;;;;;5266458;27;20118;-64
2021/07/02 05:16:45;;;;;;;9.63;6.77;;;17.90;99.90;;;;;;5266557;27;20129;-65
2021/07/02 05:19:12;;;;;;;9.47;6.87;;;17.70;99.90;;;;;;5266446;27;20119;-65
2021/07/02 05:21:39;;;;;;;10.17;6.73;;;17.80;99.90;;;;;;5266517;27;20312;-66
2021/07/02 05:24:06;;;;;;;11.03;6.80;;;17.60;99.90;;;;;;5263292;27;20150;-64
2021/07/02 05:26:32;;;;;;;10.27;6.77;;;17.40;99.90;;;;;;5263081;27;20492;-63
2021/07/02 05:28:59;;;;;;;12.70;7.40;;;17.40;99.90;;;;;;5262692;27;20137;-63
2021/07/02 05:31:26;;;;;;;9.07;7.00;;;17.30;99.90;;;;;;5262043;27;20127;-68
2021/07/02 05:33:53;;;;;;;10.47;7.13;;;17.40;99.90;;;;;;5260043;27;20134;-69
2021/07/02 05:36:20;;;;;;;13.87;8.13;;;17.50;99.90;;;;;;5258991;27;20482;-64
2021/07/02 05:38:47;;;;;;;10.50;7.77;;;17.60;99.90;;;;;;5263049;27;20484;-65
2021/07/02 05:41:14;;;;;;;11.67;8.07;;;17.70;99.90;;;;;;5262465;27;20111;-65
2021/07/02 05:43:41;;;;;;;12.20;8.80;;;17.70;99.90;;;;;;5265876;27;20158;-64
2021/07/02 05:46:08;;;;;;;13.40;8.80;;;17.80;99.90;;;;;;5263725;27;20162;-66
2021/07/02 05:48:35;;;;;;;16.13;9.33;;;17.70;99.90;;;;;;5263989;27;20493;-62
2021/07/02 05:51:02;;;;;;;13.13;9.10;;;17.90;99.90;;;;;;5266270;27;20159;-63
2021/07/02 05:53:29;;;;;;;12.50;9.10;;;17.80;99.90;;;;;;5266118;27;20119;-63
2021/07/02 05:55:56;;;;;;;13.10;9.30;;;18.00;99.90;;;;;;5266118;27;20144;-64
2021/07/02 05:58:23;;;;;;;12.20;8.90;;;18.00;99.90;;;;;;5266136;27;20402;-64
2021/07/02 06:00:50;;;;;;;13.70;10.00;;;18.00;99.90;;;;;;5262556;27;20142;-64
2021/07/02 06:03:17;;;;;;;15.90;10.40;;;17.90;99.90;;;;;;5266320;27;20148;-65
2021/07/02 06:05:44;;;;;;;14.53;10.30;;;17.80;99.90;;;;;;5266166;27;20110;-64
2021/07/02 06:08:11;;;;;;;15.57;10.93;;;17.90;99.90;;;;;;5267255;27;20145;-64
2021/07/02 06:10:38;;;;;;;13.43;10.47;;;18.00;99.90;;;;;;5267438;27;20142;-64
2021/07/02 06:13:04;;;;;;;14.67;9.90;;;18.20;99.90;;;;;;5267600;27;20154;-64
2021/07/02 06:15:32;;;;;;;15.93;10.57;;;18.10;99.90;;;;;;5267668;27;20375;-65
2021/07/02 06:18:08;;;;;;;15.80;10.63;;;18.30;99.90;;;;;;5268047;27;20123;-65
2021/07/02 06:20:35;;;;;;;13.37;9.60;;;18.50;99.90;;;;;;5267694;27;20327;-65
2021/07/02 06:23:04;;;;;;;16.33;10.73;;;18.60;99.90;;;;;;5267213;27;20123;-65
2021/07/02 06:25:31;;;;;;;14.03;10.10;;;18.70;99.90;;;;;;5267217;27;20129;-64
2021/07/02 06:27:57;;;;;;;13.63;10.13;;;18.90;99.90;;;;;;5267238;27;20193;-63
2021/07/02 06:30:25;;;;;;;14.50;11.43;;;19.10;99.90;;;;;;5265904;27;20414;-63
2021/07/02 06:32:51;;;;;;;13.37;10.90;;;18.80;99.90;;;;;;5266878;27;20147;-64
2021/07/02 06:35:18;;;;;;;16.80;12.97;;;18.60;99.90;;;;;;5267127;27;20188;-65
2021/07/02 06:37:49;;;;;;;17.97;13.47;;;18.80;99.90;;;;;;5266961;27;20130;-64
2021/07/02 06:40:20;;;;;;;19.80;14.40;;;18.80;99.90;;;;;;5267065;27;20115;-64
2021/07/02 06:42:48;;;;;;;21.60;14.57;;;18.70;99.90;;;;;;5267033;27;20149;-65
2021/07/02 06:45:16;;;;;;;22.70;14.37;;;18.80;99.90;;;;;;5264113;27;20183;-64
2021/07/02 06:47:55;;;;;;;22.73;15.33;;;18.80;99.90;;;;;;5266916;27;20152;-63
2021/07/02 06:50:24;;;;;;;23.23;16.73;;;18.70;99.90;;;;;;5264775;27;20142;-64
2021/07/02 06:52:51;;;;;;;24.53;17.10;;;18.50;99.90;;;;;;5266792;27;20127;-64
2021/07/02 06:55:19;;;;;;;24.87;16.53;;;18.50;99.90;;;;;;5266002;27;20191;-64
2021/07/02 06:57:46;;;;;;;23.90;16.63;;;18.70;99.90;;;;;;5266857;27;20129;-64
2021/07/02 07:00:16;;;;;;;24.77;17.27;;;18.90;99.90;;;;;;5266779;27;20161;-64
2021/07/02 07:02:44;;;;;;;27.30;17.63;;;18.80;99.90;;;;;;5266791;27;20137;-64
2021/07/02 07:05:13;;;;;;;25.10;17.20;;;18.40;99.90;;;;;;5266806;27;20209;-64
2021/07/02 07:07:40;;;;;;;27.00;17.13;;;18.40;99.90;;;;;;5266575;27;20160;-64
2021/07/02 07:10:08;;;;;;;27.07;17.53;;;18.50;99.90;;;;;;5266746;27;20166;-64
2021/07/02 07:12:35;;;;;;;26.77;17.77;;;18.50;99.90;;;;;;5266708;27;20106;-64
2021/07/02 07:15:04;;;;;;;27.93;18.20;;;18.20;99.90;;;;;;5264502;27;20173;-64
2021/07/02 07:17:32;;;;;;;29.90;19.17;;;18.10;99.90;;;;;;5264649;27;20180;-64
2021/07/02 07:19:59;;;;;;;31.77;20.83;;;18.00;99.90;;;;;;5265521;27;20376;-64
2021/07/02 07:22:26;;;;;;;29.50;19.67;;;18.00;99.90;;;;;;5266946;27;20114;-64
2021/07/02 07:24:53;;;;;;;35.73;21.87;;;18.00;99.90;;;;;;5265882;27;20125;-64
2021/07/02 07:27:20;;;;;;;37.63;22.47;;;17.80;99.90;;;;;;5266261;27;20490;-63
2021/07/02 07:29:46;;;;;;;37.07;22.73;;;17.70;99.90;;;;;;5266433;27;20115;-64
2021/07/02 07:32:13;;;;;;;35.10;21.30;;;17.70;99.90;;;;;;5264832;27;20145;-64
2021/07/02 07:34:49;;;;;;;38.33;21.67;;;17.70;99.90;;;;;;5266204;27;20149;-64
2021/07/02 07:37:19;;;;;;;39.43;22.63;;;17.80;99.90;;;;;;5266517;27;20110;-63
2021/07/02 07:39:50;;;;;;;39.30;23.20;;;17.90;99.90;;;;;;5266496;27;20146;-64
2021/07/02 07:42:18;;;;;;;42.20;23.90;;;17.90;99.90;;;;;;5267073;27;20115;-64
2021/07/02 07:44:46;;;;;;;38.70;23.53;;;17.80;99.90;;;;;;5264363;27;20137;-64
2021/07/02 07:47:13;;;;;;;37.47;23.27;;;17.80;99.90;;;;;;5265862;27;20129;-64
2021/07/02 07:49:40;;;;;;;44.93;25.03;;;17.90;99.90;;;;;;5265749;27;20372;-64
2021/07/02 07:54:41;;;;;;;40.60;24.50;;;17.60;99.90;;;;;;5264319;27;20118;-64
2021/07/02 07:57:08;;;;;;;41.73;24.10;;;17.40;99.90;;;;;;5266602;27;20156;-64
2021/07/02 07:59:35;;;;;;;39.13;22.60;;;17.50;99.90;;;;;;5267031;27;20119;-64
2021/07/02 08:02:03;;;;;;;38.50;22.80;;;17.50;99.90;;;;;;5266589;27;20165;-64
2021/07/02 08:04:30;;;;;;;34.30;21.27;;;17.70;99.90;;;;;;5266822;27;20113;-63
2021/07/02 08:06:57;;;;;;;30.33;18.13;;;17.80;99.90;;;;;;5264384;27;20421;-63
2021/07/02 08:09:24;;;;;;;27.40;17.13;;;17.70;99.90;;;;;;5266571;27;20126;-63
2021/07/02 08:11:51;;;;;;;25.70;15.67;;;17.90;99.90;;;;;;5265482;27;20118;-63
2021/07/02 08:14:18;;;;;;;26.10;15.40;;;17.90;99.90;;;;;;5265131;27;20193;-63
2021/07/02 08:16:45;;;;;;;21.33;14.20;;;18.00;99.90;;;;;;5266588;27;20183;-63
2021/07/02 08:19:12;;;;;;;21.57;13.80;;;18.00;99.90;;;;;;5266463;27;20321;-63
2021/07/02 08:21:39;;;;;;;21.00;12.93;;;18.10;99.90;;;;;;5266712;27;20181;-64
2021/07/02 08:24:05;;;;;;;25.37;13.87;;;18.10;99.90;;;;;;5266524;27;20114;-63
2021/07/02 08:26:32;;;;;;;24.73;12.97;;;18.10;99.90;;;;;;5265710;27;20114;-63
2021/07/02 08:31:45;;;;;;;21.27;13.67;;;18.10;99.90;;;;;;5264149;27;20153;-63
2021/07/02 08:34:12;;;;;;;21.17;13.40;;;18.10;99.90;;;;;;5266609;27;20417;-63
2021/07/02 08:36:38;;;;;;;20.50;12.50;;;18.30;99.90;;;;;;5265855;27;20138;-63
2021/07/02 08:39:05;;;;;;;21.60;12.57;;;18.60;99.90;;;;;;5266338;27;20159;-63
2021/07/02 08:41:33;;;;;;;20.40;12.87;;;18.80;99.90;;;;;;5266721;27;20156;-63
2021/07/02 08:44:00;;;;;;;21.73;13.20;;;18.60;99.90;;;;;;5265105;27;20110;-63
2021/07/02 08:46:28;;;;;;;21.27;13.23;;;18.50;99.90;;;;;;5263128;27;20119;-63
2021/07/02 08:48:58;;;;;;;18.83;12.47;;;18.60;99.90;;;;;;5265824;27;20131;-64
2021/07/02 08:51:25;;;;;;;20.17;13.03;;;18.60;99.90;;;;;;5265524;27;20137;-63
2021/07/02 08:53:55;;;;;;;20.20;12.70;;;18.40;99.90;;;;;;5265604;27;20173;-62
2021/07/02 08:56:22;;;;;;;21.70;13.00;;;18.10;99.90;;;;;;5263409;27;20126;-63
2021/07/02 08:58:49;;;;;;;20.30;13.23;;;18.10;99.90;;;;;;5265916;27;20145;-62
2021/07/02 09:01:38;;;;;;;19.00;12.20;;;18.20;99.90;;;;;;5265874;27;20153;-64
2021/07/02 09:04:15;;;;;;;20.97;13.03;;;18.50;99.90;;;;;;5266452;27;20137;-63
2021/07/02 09:06:42;;;;;;;18.70;12.23;;;18.70;99.90;;;;;;5265500;27;20122;-64
2021/07/02 09:09:09;;;;;;;18.90;11.70;;;18.80;99.90;;;;;;5266691;27;20115;-64
2021/07/02 09:11:37;;;;;;;19.07;11.00;;;18.60;99.90;;;;;;5266534;27;20111;-62
2021/07/02 09:14:06;;;;;;;17.53;11.47;;;18.70;99.90;;;;;;5265292;27;20531;-63
2021/07/02 09:16:38;;;;;;;17.33;10.70;;;19.00;99.90;;;;;;5265819;27;20134;-62
2021/07/02 09:19:29;;;;;;;17.83;10.67;;;19.20;99.90;;;;;;5265968;27;20114;-63
2021/07/02 09:22:17;;;;;;;18.33;10.63;;;19.20;99.90;;;;;;5266375;27;20416;-63
2021/07/02 09:24:46;;;;;;;18.03;10.43;;;19.10;99.90;;;;;;5266193;27;20129;-63
2021/07/02 09:27:30;;;;;;;16.40;10.67;;;19.30;99.90;;;;;;5265658;27;20395;-63
2021/07/02 09:30:15;;;;;;;17.63;11.07;;;19.20;99.90;;;;;;5245438;27;20143;-63
2021/07/02 09:32:48;;;;;;;17.47;10.57;;;19.20;99.90;;;;;;5266652;27;20118;-63
2021/07/02 09:35:17;;;;;;;16.13;10.20;;;19.20;99.90;;;;;;5266347;27;20118;-63
2021/07/02 09:37:50;;;;;;;16.30;10.53;;;19.10;99.90;;;;;;5265805;27;20106;-63
2021/07/02 09:40:29;;;;;;;15.37;10.10;;;19.20;99.90;;;;;;5264226;27;20130;-63
2021/07/02 09:43:01;;;;;;;17.73;10.77;;;19.40;99.90;;;;;;5266242;27;20114;-64
2021/07/02 09:45:28;;;;;;;17.33;10.37;;;19.20;99.90;;;;;;5264391;27;20138;-63
2021/07/02 09:47:56;;;;;;;15.73;10.20;;;19.00;99.90;;;;;;5263470;27;20170;-63
2021/07/02 09:50:27;;;;;;;14.87;9.60;;;19.10;99.90;;;;;;5265367;27;20379;-64
2021/07/02 09:53:00;;;;;;;14.57;9.67;;;19.50;99.90;;;;;;5265953;27;20181;-64
2021/07/02 09:55:31;;;;;;;15.20;10.17;;;19.90;99.90;;;;;;5265303;27;20122;-63
2021/07/02 09:58:10;;;;;;;18.43;8.93;;;20.10;99.90;;;;;;5264412;27;20174;-64
2021/07/02 10:00:49;;;;;;;13.53;9.20;;;20.50;99.90;;;;;;5266320;27;20153;-64
2021/07/02 10:03:18;;;;;;;14.30;8.77;;;20.70;99.90;;;;;;5263639;27;20115;-63
2021/07/02 10:05:56;;;;;;;16.37;9.70;;;20.60;99.90;;;;;;5266110;27;20114;-63
2021/07/02 10:08:26;;;;;;;17.00;10.03;;;20.50;99.90;;;;;;5265984;27;20162;-64
2021/07/02 10:10:55;;;;;;;15.30;10.77;;;20.60;99.90;;;;;;5264012;27;20337;-63
2021/07/02 10:13:26;;;;;;;16.80;11.10;;;20.50;99.90;;;;;;5266021;27;20111;-63
2021/07/02 10:15:55;;;;;;;16.17;10.57;;;20.40;99.90;;;;;;5265817;27;20118;-64
2021/07/02 10:18:27;;;;;;;20.70;12.17;;;20.60;99.90;;;;;;5264048;27;20477;-63
2021/07/02 10:20:55;;;;;;;19.47;12.37;;;20.50;99.90;;;;;;5266171;27;20142;-64
2021/07/02 10:23:33;;;;;;;20.33;12.60;;;20.50;99.90;;;;;;5247183;27;20199;-64
2021/07/02 10:26:03;;;;;;;17.97;12.47;;;20.60;99.90;;;;;;5266215;27;20428;-63
2021/07/02 10:28:30;;;;;;;20.17;12.80;;;20.70;99.90;;;;;;5265977;27;20306;-64
2021/07/02 10:30:58;;;;;;;21.70;13.83;;;20.70;99.90;;;;;;5265986;27;20111;-64
2021/07/02 10:33:27;;;;;;;23.67;14.63;;;20.70;99.90;;;;;;5265892;27;20115;-64
2021/07/02 10:36:03;;;;;;;23.23;14.70;;;20.50;99.90;;;;;;5265127;27;20138;-64
2021/07/02 10:38:37;;;;;;;25.57;15.17;;;20.30;99.90;;;;;;5265709;27;20157;-64
2021/07/02 10:41:34;;;;;;;21.03;13.97;;;20.10;99.90;;;;;;5266299;27;20110;-63
2021/07/02 10:44:07;;;;;;;23.90;14.80;;;20.00;99.90;;;;;;5177929;27;20176;-63
2021/07/02 10:46:38;;;;;;;22.27;14.00;;;20.30;99.90;;;;;;5177960;27;20486;-64
2021/07/02 10:49:08;;;;;;;23.80;14.40;;;20.40;99.90;;;;;;5178437;27;20195;-63
2021/07/02 10:51:35;;;;;;;27.87;15.97;;;20.50;99.90;;;;;;5178265;27;20131;-64
2021/07/02 10:54:24;;;;;;;26.43;16.47;;;20.60;99.90;;;;;;5178863;27;20119;-64
2021/07/02 10:56:55;;;;;;;26.43;16.73;;;20.20;99.90;;;;;;5177266;27;20127;-64
2021/07/02 10:59:44;;;;;;;26.00;15.67;;;20.30;99.90;;;;;;5179800;27;20127;-64
2021/07/02 11:02:13;;;;;;;27.47;16.80;;;20.50;99.90;;;;;;5177155;27;20269;-64
2021/07/02 11:04:43;;;;;;;28.90;16.43;;;20.50;99.90;;;;;;5179479;27;20159;-64
2021/07/02 11:07:18;;;;;;;20.37;12.67;;;20.50;99.90;;;;;;5179661;27;20385;-63
2021/07/02 11:09:48;;;;;;;17.10;11.40;;;20.50;99.90;;;;;;5177924;27;20115;-64
2021/07/02 11:12:16;;;;;;;20.27;11.37;;;20.00;99.90;;;;;;5179432;27;20120;-64
2021/07/02 11:14:56;;;;;;;20.00;11.33;;;20.20;99.90;;;;;;5177074;27;20183;-64
2021/07/02 11:17:32;;;;;;;18.50;11.17;;;20.40;99.90;;;;;;5179753;27;20143;-64
2021/07/02 11:20:05;;;;;;;19.70;11.57;;;20.50;99.90;;;;;;5206046;27;20133;-64
2021/07/02 11:23:01;;;;;;;17.13;10.73;;;20.60;99.90;;;;;;5267043;27;20110;-64
2021/07/02 11:25:58;;;;;;;19.70;12.47;;;20.60;99.90;;;;;;5248521;27;20147;-64
2021/07/02 11:28:42;;;;;;;20.20;12.60;;;20.40;99.90;;;;;;5267130;27;20114;-63
2021/07/02 11:31:11;;;;;;;20.47;12.63;;;20.60;99.90;;;;;;5266823;27;20152;-64
2021/07/02 11:33:38;;;;;;;18.40;11.70;;;20.70;99.90;;;;;;5266632;27;20433;-63
2021/07/02 11:36:06;;;;;;;17.07;11.30;;;20.90;99.90;;;;;;5266522;27;20364;-64
2021/07/02 11:38:49;;;;;;;17.60;11.43;;;21.20;99.90;;;;;;5266889;27;20148;-63
2021/07/02 11:41:34;;;;;;;19.27;11.97;;;21.10;99.90;;;;;;5267713;27;20348;-63
2021/07/02 11:44:03;;;;;;;19.07;11.73;;;21.50;99.90;;;;;;5266520;27;20152;-64
2021/07/02 11:46:31;;;;;;;17.67;11.07;;;21.50;99.90;;;;;;5266870;27;20142;-63
2021/07/02 11:48:59;;;;;;;21.43;11.63;;;21.60;99.90;;;;;;5267237;27;20357;-64
2021/07/02 11:51:33;;;;;;;20.63;12.40;;;21.50;99.90;;;;;;5266732;27;20131;-63
2021/07/02 11:54:05;;;;;;;19.67;12.13;;;21.40;99.90;;;;;;5267124;27;20111;-64
2021/07/02 11:56:37;;;;;;;20.43;13.33;;;21.30;99.90;;;;;;5266755;27;20142;-64
2021/07/02 11:59:05;;;;;;;22.80;13.87;;;21.00;99.90;;;;;;5266874;27;20115;-64
2021/07/02 12:01:43;;;;;;;21.57;14.40;;;21.20;99.90;;;;;;5266898;27;20146;-63
2021/07/02 12:04:32;;;;;;;23.53;15.30;;;21.20;99.90;;;;;;5265117;27;20114;-62
2021/07/02 12:07:07;;;;;;;24.70;15.97;;;21.30;99.90;;;;;;5266630;27;20349;-63
2021/07/02 12:09:42;;;;;;;26.10;17.10;;;21.10;99.90;;;;;;5267018;27;20129;-63
2021/07/02 12:12:19;;;;;;;27.20;17.73;;;21.10;99.90;;;;;;5265440;27;20109;-63
2021/07/02 12:14:46;;;;;;;27.73;19.47;;;21.00;99.90;;;;;;5266680;27;20152;-63
2021/07/02 12:17:13;;;;;;;29.70;19.50;;;20.70;99.90;;;;;;5266659;27;20119;-62
2021/07/02 12:19:41;;;;;;;30.00;19.10;;;20.70;99.90;;;;;;5266702;27;20114;-63
2021/07/02 12:22:12;;;;;;;29.97;19.73;;;20.60;99.90;;;;;;5265864;27;20153;-63
2021/07/02 12:24:48;;;;;;;26.37;17.43;;;20.50;99.90;;;;;;5266892;27;20370;-63
2021/07/02 12:27:19;;;;;;;27.43;18.23;;;20.40;99.90;;;;;;5265563;27;20115;-64
2021/07/02 12:29:47;;;;;;;21.10;14.13;;;20.30;99.90;;;;;;5266674;27;20192;-63
2021/07/02 12:32:16;;;;;;;22.40;11.97;;;20.40;99.90;;;;;;5266390;27;20500;-64
2021/07/02 12:34:45;;;;;;;20.77;12.57;;;20.40;99.90;;;;;;5266439;27;20149;-64
2021/07/02 12:37:14;;;;;;;17.90;11.27;;;20.10;99.90;;;;;;5266321;27;20164;-64
2021/07/02 12:40:02;;;;;;;17.07;11.53;;;20.20;99.90;;;;;;5266644;27;20191;-63
2021/07/02 12:42:37;;;;;;;19.63;11.53;;;20.00;99.90;;;;;;5266605;27;20381;-63
2021/07/02 12:45:12;;;;;;;19.60;12.20;;;19.90;99.90;;;;;;5265261;27;20146;-63
2021/07/02 12:47:41;;;;;;;18.87;12.83;;;19.90;99.90;;;;;;5266040;27;20321;-64
2021/07/02 12:50:13;;;;;;;20.00;13.17;;;19.70;99.90;;;;;;5266050;27;20450;-64
2021/07/02 12:55:14;;;;;;;23.00;14.60;;;19.60;99.90;;;;;;5266575;27;20191;-64